createdAt,value
2022-07-30T00:01:36.115Z,3.40
2022-07-30T00:03:58.690Z,2.90
2022-07-30T00:06:21.068Z,2.80
2022-07-30T00:08:43.305Z,3.30
2022-07-30T00:11:05.832Z,3.17
2022-07-30T00:13:28.218Z,3.13
2022-07-30T00:15:50.498Z,3.53
2022-07-30T00:18:13.357Z,3.27
2022-07-30T00:20:35.700Z,3.77
2022-07-30T00:22:59.378Z,3.53
2022-07-30T00:25:21.613Z,3.40
2022-07-30T00:27:44.381Z,3.57
2022-07-30T00:30:07.226Z,3.73
2022-07-30T00:32:29.467Z,3.40
2022-07-30T00:34:52.044Z,3.77
2022-07-30T00:37:14.345Z,4.20
2022-07-30T00:39:36.613Z,3.67
2022-07-30T00:42:03.573Z,3.80
2022-07-30T00:44:26.113Z,3.47
2022-07-30T00:46:48.457Z,3.60
2022-07-30T00:49:10.755Z,3.30
2022-07-30T00:51:36.312Z,3.80
2022-07-30T00:53:58.716Z,3.40
2022-07-30T00:56:21.029Z,3.70
2022-07-30T00:58:43.283Z,3.87
2022-07-30T01:01:05.602Z,4.00
2022-07-30T01:03:28.613Z,3.90
2022-07-30T01:05:51.483Z,4.07
2022-07-30T01:08:13.809Z,3.67
2022-07-30T01:10:36.322Z,3.30
2022-07-30T01:12:59.209Z,4.27
2022-07-30T01:15:22.469Z,4.70
2022-07-30T01:17:45.422Z,4.10
2022-07-30T01:20:14.313Z,3.90
2022-07-30T01:22:46.695Z,4.27
2022-07-30T01:25:12.731Z,3.90
2022-07-30T01:27:37.672Z,4.17
2022-07-30T01:30:02.534Z,3.77
2022-07-30T01:32:26.408Z,3.77
2022-07-30T01:34:49.542Z,4.37
2022-07-30T01:37:12.404Z,4.80
2022-07-30T01:39:34.897Z,4.33
2022-07-30T01:41:57.646Z,4.43
2022-07-30T01:44:23.515Z,4.37
2022-07-30T01:46:46.793Z,4.50
2022-07-30T01:49:11.343Z,4.03
2022-07-30T01:51:37.599Z,4.53
2022-07-30T01:54:01.247Z,4.50
2022-07-30T01:56:25.540Z,5.03
2022-07-30T01:58:51.837Z,4.23
2022-07-30T02:01:18.179Z,4.43
2022-07-30T02:03:40.696Z,4.50
2022-07-30T02:06:08.009Z,4.77
2022-07-30T02:08:36.310Z,4.57
2022-07-30T02:11:05.320Z,4.97
2022-07-30T02:13:28.481Z,5.10
2022-07-30T02:15:55.457Z,4.90
2022-07-30T02:18:30.783Z,4.90
2022-07-30T02:20:57.150Z,4.67
2022-07-30T02:23:20.100Z,4.83
2022-07-30T02:25:44.966Z,4.73
2022-07-30T02:28:10.053Z,4.60
2022-07-30T02:30:33.595Z,4.47
2022-07-30T02:33:00.503Z,5.07
2022-07-30T02:35:24.791Z,4.57
2022-07-30T02:37:48.853Z,4.97
2022-07-30T02:40:12.108Z,4.70
2022-07-30T02:42:34.530Z,5.03
2022-07-30T02:44:58.182Z,4.70
2022-07-30T02:47:22.720Z,4.60
2022-07-30T02:49:52.098Z,4.57
2022-07-30T02:52:16.116Z,4.57
2022-07-30T02:54:40.125Z,4.30
2022-07-30T02:57:03.613Z,4.37
2022-07-30T02:59:27.259Z,4.63
2022-07-30T03:01:50.092Z,5.07
2022-07-30T03:04:13.784Z,4.47
2022-07-30T03:06:37.806Z,4.63
2022-07-30T03:09:00.538Z,5.33
2022-07-30T03:11:24.280Z,4.50
2022-07-30T03:13:46.545Z,4.30
2022-07-30T03:16:10.710Z,4.30
2022-07-30T03:18:34.997Z,4.53
2022-07-30T03:20:57.909Z,4.50
2022-07-30T03:23:20.523Z,4.47
2022-07-30T03:25:43.573Z,4.90
2022-07-30T03:28:06.449Z,4.73
2022-07-30T03:30:29.005Z,4.57
2022-07-30T03:32:52.667Z,4.47
2022-07-30T03:35:17.148Z,4.67
2022-07-30T03:37:42.159Z,4.30
2022-07-30T03:40:05.303Z,4.50
2022-07-30T03:42:27.945Z,4.97
2022-07-30T03:44:50.492Z,4.70
2022-07-30T03:47:13.738Z,4.60
2022-07-30T03:49:41.425Z,4.97
2022-07-30T03:52:05.986Z,4.50
2022-07-30T03:54:29.151Z,5.13
2022-07-30T03:57:11.467Z,4.93
2022-07-30T03:59:40.448Z,5.13
2022-07-30T04:02:05.941Z,5.40
2022-07-30T04:04:48.226Z,5.57
2022-07-30T04:07:10.730Z,5.73
2022-07-30T04:09:33.705Z,5.57
2022-07-30T04:12:08.485Z,5.97
2022-07-30T04:14:44.302Z,5.43
2022-07-30T04:17:09.246Z,5.13
2022-07-30T04:19:43.109Z,5.13
2022-07-30T04:22:05.704Z,4.60
2022-07-30T04:24:30.711Z,5.63
2022-07-30T04:26:55.193Z,5.10
2022-07-30T04:29:21.397Z,4.73
2022-07-30T04:31:47.500Z,4.83
2022-07-30T04:34:52.858Z,5.30
2022-07-30T04:37:35.190Z,5.00
2022-07-30T04:39:57.789Z,5.10
2022-07-30T04:42:29.767Z,4.90
2022-07-30T04:44:58.969Z,5.47
2022-07-30T04:47:24.571Z,4.73
2022-07-30T04:50:07.280Z,4.00
2022-07-30T04:52:29.917Z,3.97
2022-07-30T04:54:55.584Z,3.73
2022-07-30T04:57:18.987Z,3.73
2022-07-30T04:59:41.337Z,3.87
2022-07-30T05:02:04.460Z,3.70
2022-07-30T05:04:28.923Z,3.20
2022-07-30T05:06:51.677Z,3.40
2022-07-30T05:09:16.053Z,3.00
2022-07-30T05:11:39.996Z,3.35
2022-07-30T05:14:02.921Z,3.88
2022-07-30T05:16:25.352Z,3.20
2022-07-30T05:18:50.418Z,3.47
2022-07-30T05:21:12.711Z,2.70
2022-07-30T05:23:39.934Z,3.00
2022-07-30T05:26:27.542Z,2.65
2022-07-30T05:28:55.021Z,2.55
2022-07-30T05:31:23.086Z,2.30
2022-07-30T05:33:54.016Z,2.47
2022-07-30T05:36:21.508Z,2.53
2022-07-30T05:38:43.836Z,2.25
2022-07-30T05:41:32.991Z,1.58
2022-07-30T05:44:02.861Z,2.50
2022-07-30T05:46:25.906Z,1.60
2022-07-30T05:48:48.999Z,2.17
2022-07-30T05:51:11.390Z,2.17
2022-07-30T05:53:33.895Z,1.80
2022-07-30T05:56:05.607Z,2.10
2022-07-30T05:58:52.428Z,2.05
2022-07-30T06:01:24.706Z,1.75
2022-07-30T06:03:47.856Z,2.22
2022-07-30T06:06:29.175Z,2.05
2022-07-30T06:08:51.474Z,2.30
2022-07-30T06:11:13.853Z,2.42
2022-07-30T06:13:36.665Z,1.90
2022-07-30T06:15:59.286Z,2.00
2022-07-30T06:18:23.288Z,1.80
2022-07-30T06:20:49.506Z,2.38
2022-07-30T06:23:40.996Z,2.30
2022-07-30T06:26:14.080Z,2.72
2022-07-30T06:28:38.519Z,2.50
2022-07-30T06:31:10.049Z,2.42
2022-07-30T06:33:32.700Z,2.20
2022-07-30T06:35:55.154Z,2.22
2022-07-30T06:38:20.406Z,2.30
2022-07-30T06:40:52.286Z,2.20
2022-07-30T06:43:23.472Z,2.10
2022-07-30T06:46:08.662Z,2.33
2022-07-30T06:48:38.245Z,2.33
2022-07-30T06:51:01.542Z,2.38
2022-07-30T06:53:24.612Z,2.10
2022-07-30T06:56:05.619Z,2.22
2022-07-30T06:58:40.032Z,2.38
2022-07-30T07:01:23.513Z,2.35
2022-07-30T07:03:46.711Z,2.38
2022-07-30T07:06:09.466Z,2.35
2022-07-30T07:08:32.273Z,2.95
2022-07-30T07:10:54.931Z,2.65
2022-07-30T07:13:40.526Z,2.53
2022-07-30T07:16:06.531Z,2.65
2022-07-30T07:18:30.529Z,2.22
2022-07-30T07:21:01.851Z,2.50
2022-07-30T07:23:25.026Z,2.78
2022-07-30T07:25:50.024Z,2.55
2022-07-30T07:28:13.690Z,2.67
2022-07-30T07:30:40.129Z,2.58
2022-07-30T07:33:03.692Z,3.15
2022-07-30T07:35:26.252Z,2.20
2022-07-30T07:37:48.625Z,1.75
2022-07-30T07:40:17.345Z,2.25
2022-07-30T07:42:40.368Z,2.40
2022-07-30T07:45:02.874Z,2.30
2022-07-30T07:47:30.088Z,1.95
2022-07-30T07:50:06.865Z,2.63
2022-07-30T07:52:29.104Z,3.08
2022-07-30T07:54:51.463Z,2.70
2022-07-30T07:57:14.661Z,2.45
2022-07-30T07:59:47.050Z,2.53
2022-07-30T08:02:17.176Z,2.63
2022-07-30T08:04:51.900Z,2.80
2022-07-30T08:07:37.382Z,2.65
2022-07-30T08:10:02.474Z,2.03
2022-07-30T08:12:43.777Z,2.22
2022-07-30T08:15:21.750Z,1.92
2022-07-30T08:18:07.837Z,2.20
2022-07-30T08:20:56.276Z,2.30
2022-07-30T08:23:24.405Z,2.63
2022-07-30T08:25:46.991Z,2.22
2022-07-30T08:28:09.424Z,2.50
2022-07-30T08:30:51.708Z,2.63
2022-07-30T08:33:14.031Z,2.90
2022-07-30T08:35:36.278Z,2.30
2022-07-30T08:38:07.604Z,1.80
2022-07-30T08:40:33.849Z,1.67
2022-07-30T08:42:59.814Z,1.75
2022-07-30T08:45:34.738Z,1.60
2022-07-30T08:48:27.676Z,1.95
2022-07-30T08:50:51.892Z,2.00
2022-07-30T08:53:40.913Z,2.22
2022-07-30T08:56:04.866Z,2.10
2022-07-30T08:58:30.104Z,2.38
2022-07-30T09:00:52.600Z,1.92
2022-07-30T09:03:22.199Z,1.75
2022-07-30T09:05:46.422Z,1.80
2022-07-30T09:08:09.127Z,2.20
2022-07-30T09:10:31.582Z,2.03
2022-07-30T09:12:54.388Z,1.85
2022-07-30T09:15:18.202Z,2.25
2022-07-30T09:18:00.733Z,1.92
2022-07-30T09:20:29.679Z,1.98
2022-07-30T09:22:53.885Z,1.60
2022-07-30T09:25:36.084Z,1.45
2022-07-30T09:28:17.283Z,1.40
2022-07-30T09:30:58.632Z,1.40
2022-07-30T09:33:43.431Z,1.30
2022-07-30T09:36:33.142Z,1.35
2022-07-30T09:39:34.475Z,1.27
2022-07-30T09:42:25.670Z,1.40
2022-07-30T09:44:49.662Z,1.45
2022-07-30T09:47:32.338Z,1.30
2022-07-30T09:50:06.933Z,1.13
2022-07-30T09:52:29.751Z,1.40
2022-07-30T09:54:53.179Z,1.20
2022-07-30T09:57:26.440Z,1.42
2022-07-30T09:59:56.980Z,1.10
2022-07-30T10:02:19.425Z,1.17
2022-07-30T10:05:14.434Z,1.38
2022-07-30T10:07:42.692Z,1.02
2022-07-30T10:10:06.413Z,0.93
2022-07-30T10:12:30.996Z,0.88
2022-07-30T10:14:54.671Z,0.82
2022-07-30T10:17:17.466Z,1.20
2022-07-30T10:20:10.352Z,1.10
2022-07-30T10:22:41.434Z,1.00
2022-07-30T10:25:27.830Z,1.08
2022-07-30T10:28:05.798Z,0.90
2022-07-30T10:30:29.517Z,0.73
2022-07-30T10:32:54.339Z,0.60
2022-07-30T10:35:34.315Z,0.98
2022-07-30T10:38:04.716Z,0.75
2022-07-30T10:40:30.722Z,1.02
2022-07-30T10:43:15.974Z,1.10
2022-07-30T10:45:46.338Z,1.23
2022-07-30T10:48:10.613Z,1.00
2022-07-30T10:50:39.176Z,1.00
2022-07-30T10:53:02.150Z,0.95
2022-07-30T10:55:39.500Z,0.82
2022-07-30T10:58:05.941Z,0.90
2022-07-30T11:00:31.511Z,0.80
2022-07-30T11:03:41.711Z,1.02
2022-07-30T11:06:25.389Z,0.77
2022-07-30T11:09:00.476Z,0.60
2022-07-30T11:11:59.163Z,0.60
2022-07-30T11:14:06.928Z,0.82
2022-07-30T11:16:35.697Z,1.15
2022-07-30T11:19:50.279Z,0.70
2022-07-30T11:21:51.073Z,0.77
2022-07-30T11:24:39.706Z,0.60
2022-07-30T11:27:06.375Z,0.70
2022-07-30T11:29:50.649Z,1.00
2022-07-30T11:32:52.773Z,0.82
2022-07-30T11:35:15.798Z,0.77
2022-07-30T11:38:02.535Z,0.80
2022-07-30T11:40:28.248Z,0.73
2022-07-30T11:42:51.435Z,0.80
2022-07-30T11:45:26.992Z,0.90
2022-07-30T11:47:52.707Z,0.57
2022-07-30T11:50:23.867Z,0.52
2022-07-30T11:52:52.699Z,0.40
2022-07-30T11:55:48.049Z,0.80
2022-07-30T11:58:11.906Z,0.50
2022-07-30T12:00:44.861Z,0.65
2022-07-30T12:03:12.335Z,0.43
2022-07-30T12:05:36.485Z,0.52
2022-07-30T12:07:59.446Z,0.50
2022-07-30T12:10:26.860Z,0.85
2022-07-30T12:12:53.013Z,0.50
2022-07-30T12:15:35.286Z,0.50
2022-07-30T12:18:24.158Z,0.40
2022-07-30T12:21:01.069Z,0.60
2022-07-30T12:23:23.824Z,0.70
2022-07-30T12:25:50.994Z,0.40
2022-07-30T12:28:23.320Z,0.50
2022-07-30T12:30:46.029Z,0.60
2022-07-30T12:33:08.914Z,0.50
2022-07-30T12:35:54.586Z,0.60
2022-07-30T12:38:18.109Z,0.30
2022-07-30T12:40:59.401Z,0.40
2022-07-30T12:43:46.757Z,0.60
2022-07-30T12:46:13.186Z,0.50
2022-07-30T12:48:45.068Z,0.40
2022-07-30T12:51:14.273Z,0.45
2022-07-30T12:53:37.090Z,0.50
2022-07-30T12:56:13.664Z,0.50
2022-07-30T12:58:39.579Z,0.38
2022-07-30T13:01:02.445Z,0.40
2022-07-30T13:03:27.000Z,0.50
2022-07-30T13:05:50.901Z,0.38
2022-07-30T13:08:22.607Z,0.40
2022-07-30T13:10:59.306Z,0.50
2022-07-30T13:13:33.029Z,0.22
2022-07-30T13:18:48.113Z,0.45
2022-07-30T13:21:11.887Z,0.30
2022-07-30T13:23:35.807Z,0.30
2022-07-30T13:25:58.488Z,0.30
2022-07-30T13:28:34.350Z,0.40
2022-07-30T13:31:07.631Z,0.28
2022-07-30T13:33:30.411Z,0.38
2022-07-30T13:35:53.051Z,0.28
2022-07-30T13:38:19.476Z,0.30
2022-07-30T13:40:48.447Z,0.30
2022-07-30T13:43:11.122Z,0.32
2022-07-30T13:45:33.859Z,0.30
2022-07-30T13:47:57.090Z,0.30
2022-07-30T13:50:34.774Z,0.45
2022-07-30T13:53:01.742Z,0.20
2022-07-30T13:55:26.845Z,0.20
2022-07-30T13:57:53.541Z,0.20
2022-07-30T14:00:35.672Z,0.30
2022-07-30T14:03:01.194Z,0.40
2022-07-30T14:05:27.109Z,0.30
2022-07-30T14:07:50.703Z,0.30
2022-07-30T14:10:25.706Z,0.20
2022-07-30T14:12:57.919Z,0.20
2022-07-30T14:15:20.617Z,0.43
2022-07-30T14:17:43.660Z,0.10
2022-07-30T14:20:30.360Z,0.30
2022-07-30T14:22:56.124Z,0.15
2022-07-30T14:25:19.557Z,0.25
2022-07-30T14:27:42.392Z,0.30
2022-07-30T14:30:06.277Z,0.30
2022-07-30T14:32:32.593Z,0.40
2022-07-30T14:34:55.802Z,0.28
2022-07-30T14:37:23.444Z,0.28
2022-07-30T14:39:48.436Z,0.30
2022-07-30T14:42:13.107Z,0.35
2022-07-30T14:44:35.864Z,0.32
2022-07-30T14:46:59.112Z,0.30
2022-07-30T14:49:23.923Z,0.20
2022-07-30T14:51:50.758Z,0.47
2022-07-30T14:54:16.360Z,0.40
2022-07-30T14:56:39.431Z,0.45
2022-07-30T14:59:05.026Z,0.30
2022-07-30T15:01:29.021Z,0.43
2022-07-30T15:03:52.025Z,0.28
2022-07-30T15:06:18.073Z,0.40
2022-07-30T15:08:40.702Z,0.43
2022-07-30T15:11:09.831Z,0.30
2022-07-30T15:16:12.260Z,0.32
2022-07-30T15:18:38.117Z,0.50
2022-07-30T15:21:18.686Z,0.32
2022-07-30T15:23:43.873Z,0.32
2022-07-30T15:26:12.656Z,0.35
2022-07-30T15:28:44.822Z,0.30
2022-07-30T15:31:08.852Z,0.47
2022-07-30T15:33:31.453Z,0.68
2022-07-30T15:35:59.223Z,0.55
2022-07-30T15:38:31.164Z,0.40
2022-07-30T15:40:59.953Z,0.38
2022-07-30T15:43:22.813Z,0.38
2022-07-30T15:45:55.380Z,0.50
2022-07-30T15:48:30.215Z,0.70
2022-07-30T15:51:03.003Z,0.38
2022-07-30T15:53:25.649Z,0.60
2022-07-30T15:55:52.988Z,0.40
2022-07-30T15:58:21.265Z,0.40
2022-07-30T16:00:44.119Z,0.43
2022-07-30T16:03:22.724Z,0.30
2022-07-30T16:05:53.123Z,0.45
2022-07-30T16:08:17.076Z,0.47
2022-07-30T16:10:48.806Z,0.30
2022-07-30T16:13:13.496Z,0.63
2022-07-30T16:15:36.128Z,0.50
2022-07-30T16:17:59.370Z,0.60
2022-07-30T16:20:22.128Z,0.65
2022-07-30T16:22:53.997Z,0.60
2022-07-30T16:25:16.920Z,0.50
2022-07-30T16:27:43.162Z,0.60
2022-07-30T16:33:13.714Z,0.47
2022-07-30T16:35:36.456Z,0.52
2022-07-30T16:38:12.207Z,0.80
2022-07-30T16:43:25.753Z,0.80
2022-07-30T16:45:51.974Z,0.40
2022-07-30T16:48:15.528Z,0.50
2022-07-30T16:50:40.930Z,0.77
2022-07-30T16:53:09.443Z,0.47
2022-07-30T16:55:34.530Z,0.52
2022-07-30T16:57:57.380Z,0.50
2022-07-30T17:00:25.998Z,0.50
2022-07-30T17:02:59.342Z,0.57
2022-07-30T17:05:24.927Z,1.00
2022-07-30T17:07:47.617Z,0.40
2022-07-30T17:10:26.682Z,0.80
2022-07-30T17:12:50.842Z,0.55
2022-07-30T17:15:32.060Z,0.70
2022-07-30T17:17:58.834Z,0.90
2022-07-30T17:20:21.789Z,0.68
2022-07-30T17:22:44.843Z,0.82
2022-07-30T17:25:10.149Z,0.88
2022-07-30T17:27:45.798Z,0.57
2022-07-30T17:30:18.456Z,0.40
2022-07-30T17:32:41.892Z,0.70
2022-07-30T17:35:05.291Z,0.55
2022-07-30T17:37:28.960Z,0.73
2022-07-30T17:40:19.014Z,0.73
2022-07-30T17:42:44.032Z,0.70
2022-07-30T17:45:10.054Z,0.57
2022-07-30T17:47:36.584Z,0.55
2022-07-30T17:50:01.194Z,0.70
2022-07-30T17:52:30.501Z,0.57
2022-07-30T17:54:53.126Z,1.10
2022-07-30T17:57:15.878Z,0.73
2022-07-30T17:59:41.894Z,0.70
2022-07-30T18:02:12.320Z,0.70
2022-07-30T18:05:07.103Z,0.95
2022-07-30T18:07:38.974Z,1.05
2022-07-30T18:10:02.257Z,0.90
2022-07-30T18:12:25.081Z,0.77
2022-07-30T18:17:24.507Z,0.70
2022-07-30T18:19:48.068Z,0.80
2022-07-30T18:22:14.624Z,0.70
2022-07-30T18:24:40.129Z,0.77
2022-07-30T18:27:06.353Z,0.68
2022-07-30T18:29:30.108Z,0.80
2022-07-30T18:31:58.995Z,0.77
2022-07-30T18:34:25.739Z,0.82
2022-07-30T18:36:54.728Z,0.80
2022-07-30T18:39:18.401Z,0.80
2022-07-30T18:41:43.201Z,0.60
2022-07-30T18:44:06.850Z,1.00
2022-07-30T18:46:38.818Z,0.77
2022-07-30T18:49:20.883Z,0.60
2022-07-30T18:51:52.468Z,0.80
2022-07-30T18:54:28.025Z,0.90
2022-07-30T18:56:50.658Z,0.63
2022-07-30T18:59:13.405Z,0.73
2022-07-30T19:01:45.732Z,0.82
2022-07-30T19:04:11.690Z,0.80
2022-07-30T19:06:38.078Z,0.65
2022-07-30T19:09:00.768Z,0.70
2022-07-30T19:11:49.008Z,0.70
2022-07-30T19:14:14.277Z,0.70
2022-07-30T19:16:37.996Z,0.60
2022-07-30T19:19:03.181Z,0.88
2022-07-30T19:21:25.814Z,0.98
2022-07-30T19:23:53.178Z,0.60
2022-07-30T19:26:28.719Z,0.73
2022-07-30T19:28:54.436Z,0.80
2022-07-30T19:31:25.542Z,0.77
2022-07-30T19:33:48.120Z,0.95
2022-07-30T19:36:11.175Z,0.70
2022-07-30T19:38:33.714Z,0.95
2022-07-30T19:40:57.026Z,0.73
2022-07-30T19:43:28.593Z,0.90
2022-07-30T19:45:51.370Z,0.90
2022-07-30T19:48:14.119Z,0.95
2022-07-30T19:50:39.730Z,0.80
2022-07-30T19:53:04.214Z,0.70
2022-07-30T19:55:35.833Z,0.70
2022-07-30T20:00:44.396Z,1.00
2022-07-30T20:03:14.493Z,0.70
2022-07-30T20:05:56.971Z,0.90
2022-07-30T20:08:23.044Z,0.82
2022-07-30T20:10:59.361Z,0.88
2022-07-30T20:13:24.669Z,0.80
2022-07-30T20:16:14.913Z,0.70
2022-07-30T20:18:44.493Z,1.08
2022-07-30T20:21:15.171Z,0.70
2022-07-30T20:23:40.957Z,0.80
2022-07-30T20:26:12.430Z,0.95
2022-07-30T20:31:12.840Z,0.60
2022-07-30T20:33:39.084Z,0.77
2022-07-30T20:36:03.107Z,0.60
2022-07-30T20:38:33.859Z,1.02
2022-07-30T20:41:02.491Z,1.10
2022-07-30T20:43:25.121Z,1.13
2022-07-30T20:45:51.943Z,0.80
2022-07-30T20:48:17.232Z,0.77
2022-07-30T20:50:41.744Z,0.90
2022-07-30T20:53:45.217Z,0.93
2022-07-30T20:55:51.100Z,1.15
2022-07-30T20:58:23.102Z,0.95
2022-07-30T21:00:50.820Z,0.90
2022-07-30T21:03:17.136Z,1.35
2022-07-30T21:05:45.860Z,3.30
2022-07-30T21:08:18.925Z,3.00
2022-07-30T21:10:49.961Z,1.30
2022-07-30T21:13:12.899Z,1.38
2022-07-30T21:15:36.381Z,0.90
2022-07-30T21:18:10.486Z,0.85
2022-07-30T21:20:33.129Z,1.02
2022-07-30T21:22:59.960Z,1.15
2022-07-30T21:25:32.653Z,0.73
2022-07-30T21:27:59.084Z,1.08
2022-07-30T21:30:26.921Z,0.95
2022-07-30T21:32:49.480Z,1.00
2022-07-30T21:35:14.495Z,1.00
2022-07-30T21:37:42.950Z,1.23
2022-07-30T21:40:06.018Z,0.93
2022-07-30T21:42:30.379Z,1.02
2022-07-30T21:47:47.601Z,0.98
2022-07-30T21:50:19.983Z,1.10
2022-07-30T21:52:46.430Z,0.90
2022-07-30T21:55:14.768Z,0.90
2022-07-30T21:57:45.856Z,1.23
2022-07-30T22:00:21.928Z,1.08
2022-07-30T22:02:53.954Z,1.05
2022-07-30T22:05:17.132Z,1.17
2022-07-30T22:07:42.941Z,0.98
2022-07-30T22:10:08.503Z,1.13
2022-07-30T22:12:33.765Z,1.05
2022-07-30T22:15:12.474Z,1.10
2022-07-30T22:17:58.080Z,0.82
2022-07-30T22:20:27.865Z,0.90
2022-07-30T22:22:50.944Z,1.02
2022-07-30T22:25:21.517Z,0.90
2022-07-30T22:27:56.796Z,1.30
2022-07-30T22:30:20.005Z,1.10
2022-07-30T22:32:42.899Z,1.10
2022-07-30T22:35:05.605Z,1.00
2022-07-30T22:37:34.103Z,1.15
2022-07-30T22:39:56.657Z,1.05
2022-07-30T22:42:24.012Z,1.17
2022-07-30T22:44:47.460Z,1.00
2022-07-30T22:47:18.729Z,1.00
2022-07-30T22:49:45.521Z,1.02
2022-07-30T22:52:26.988Z,1.08
2022-07-30T22:54:50.968Z,1.27
2022-07-30T22:57:13.509Z,1.00
2022-07-30T23:00:00.013Z,1.05
2022-07-30T23:02:18.060Z,0.90
2022-07-30T23:04:40.264Z,0.90
2022-07-30T23:07:02.946Z,1.25
2022-07-30T23:09:28.208Z,0.98
2022-07-30T23:12:07.564Z,1.30
2022-07-30T23:14:30.076Z,1.17
2022-07-30T23:16:52.389Z,0.90
2022-07-30T23:19:22.223Z,1.05
2022-07-30T23:21:48.634Z,1.13
2022-07-30T23:24:11.140Z,1.30
2022-07-30T23:26:34.820Z,1.10
2022-07-30T23:28:57.346Z,1.13
2022-07-30T23:31:21.997Z,1.10
2022-07-30T23:33:47.501Z,1.60
2022-07-30T23:36:10.283Z,1.38
2022-07-30T23:38:32.529Z,1.27
2022-07-30T23:40:55.405Z,1.30
2022-07-30T23:43:17.760Z,1.30
2022-07-30T23:45:40.440Z,1.67
2022-07-30T23:48:03.573Z,1.08
2022-07-30T23:50:26.320Z,1.30
2022-07-30T23:52:48.920Z,1.13
2022-07-30T23:55:11.800Z,1.33
2022-07-30T23:57:34.096Z,1.40
2022-07-30T23:59:56.356Z,1.40
